La Canoa — V7DC8 — position and weather

sailwx.info

Track history (hours):
 
Tides and Currents Weather Stations Pressure Air Temp Water Temp Dewpoint Dewpoint Depression Visibility Wind Speed Wind Dir Waves Ship Positions

La Canoa

Last reported at 2018-Jul-15 02:14 UTC. Time now 2018-Aug-20 16:47 UTC.
Position N 26°00' W 080°07'.
Warning: this ship's position is 36 days out of date.

Length 20 m.

Type: Pleasure craft. MMSI: 538070972.

Date/timePositionNaut miles runAvg speedWind from/ knotsBaromVisibWave heightAir tempDewpointWater temp
2018-Jul-15 02:14N 26°00' W 080°07'2 5.4
2018-Jul-15 01:57N 25°59' W 080°07'4 7.8
2018-Jul-15 01:25N 25°55' W 080°08'4 9.3
2018-Jul-15 00:58N 25°51' W 080°10'4 8.8
2018-Jul-15 00:30N 25°47' W 080°11'2 3.5
2018-Jul-14 23:53N 25°45' W 080°10'0 0.0
2018-Jul-14 23:29N 25°45' W 080°10'0 0.0
2018-Jul-14 22:56N 25°45' W 080°10'0 0.0
2018-Jul-14 22:30N 25°45' W 080°10'2 3.6
2018-Jul-14 21:59N 25°43' W 080°11'1 2.1
2018-Jul-14 21:25N 25°44' W 080°11'3 7.1
2018-Jul-14 20:59N 25°48' W 080°11'4 8.8
2018-Jul-14 20:29N 25°52' W 080°10'3 5.9
2018-Jul-14 20:00N 25°54' W 080°08'4 7.9
2018-Jul-14 19:30N 25°58' W 080°07'2 4.1
2018-Jul-14 19:00N 26°00' W 080°08'0 0.0
2018-Jul-14 04:28N 26°00' W 080°08'0 0.0
2018-Jul-14 03:58N 26°00' W 080°08'  
2018-Jul-10 23:37N 26°00' W 080°08'0 0.0
2018-Jul-10 15:46N 26°00' W 080°08'  
Track history (hours):
 
Tides and Currents Weather Stations Pressure Air Temp Water Temp Dewpoint Dewpoint Depression Visibility Wind Speed Wind Dir Waves Ship Positions

La Canoa

Last reported at 2018-Jul-15 02:14 UTC. Time now 2018-Aug-20 16:47 UTC.
Position N 26°00' W 080°07'.
Warning: this ship's position is 36 days out of date.

Length 20 m.

Type: Pleasure craft. MMSI: 538070972.

Date/timePositionNaut miles runAvg speedWind from/ knotsBaromVisibWave heightAir tempDewpointWater temp
2018-Jul-15 02:14N 26°00' W 080°07'2 5.4
2018-Jul-15 01:57N 25°59' W 080°07'4 7.8
2018-Jul-15 01:25N 25°55' W 080°08'4 9.3
2018-Jul-15 00:58N 25°51' W 080°10'4 8.8
2018-Jul-15 00:30N 25°47' W 080°11'2 3.5
2018-Jul-14 23:53N 25°45' W 080°10'0 0.0
2018-Jul-14 23:29N 25°45' W 080°10'0 0.0
2018-Jul-14 22:56N 25°45' W 080°10'0 0.0
2018-Jul-14 22:30N 25°45' W 080°10'2 3.6
2018-Jul-14 21:59N 25°43' W 080°11'1 2.1
2018-Jul-14 21:25N 25°44' W 080°11'3 7.1
2018-Jul-14 20:59N 25°48' W 080°11'4 8.8
2018-Jul-14 20:29N 25°52' W 080°10'3 5.9
2018-Jul-14 20:00N 25°54' W 080°08'4 7.9
2018-Jul-14 19:30N 25°58' W 080°07'2 4.1
2018-Jul-14 19:00N 26°00' W 080°08'0 0.0
2018-Jul-14 04:28N 26°00' W 080°08'0 0.0
2018-Jul-14 03:58N 26°00' W 080°08'  
2018-Jul-10 23:37N 26°00' W 080°08'0 0.0
2018-Jul-10 15:46N 26°00' W 080°08'  

Dump ship's entire track history